Time;durP1;ratioP1;P1;durP2;ratioP2;P2;SDS_P1;SDS_P2;PMS_P1;PMS_P2;Temp;Humidity;BMP_temperature;BMP_pressure;BME280_temperature;BME280_humidity;BME280_pressure;Samples;Min_cycle;Max_cycle;Signal;HPM_P1;HPM_P2
2023/01/07 00:00:52;;;;;;;1.75;0.98;;;10.80;99.90;;;;;;5096820;28;20032;-73
2023/01/07 00:03:18;;;;;;;1.83;1.02;;;10.80;99.90;;;;;;5096304;28;20100;-74
2023/01/07 00:05:44;;;;;;;1.98;0.90;;;10.80;99.90;;;;;;5096761;28;20027;-73
2023/01/07 00:08:11;;;;;;;2.95;1.00;;;10.90;99.90;;;;;;5114541;28;20453;-76
2023/01/07 00:10:36;;;;;;;1.52;1.10;;;10.90;99.90;;;;;;5097057;28;20027;-73
2023/01/07 00:13:02;;;;;;;1.95;0.95;;;10.90;99.90;;;;;;5097542;28;20088;-72
2023/01/07 00:15:27;;;;;;;1.33;0.80;;;10.90;99.90;;;;;;5096027;28;20028;-73
2023/01/07 00:17:53;;;;;;;2.15;1.02;;;10.80;99.90;;;;;;5114430;28;20043;-73
2023/01/07 00:20:18;;;;;;;1.90;0.90;;;10.80;99.90;;;;;;5114208;28;20024;-73
2023/01/07 00:22:44;;;;;;;1.17;0.70;;;10.90;99.90;;;;;;5114571;28;20483;-73
2023/01/07 00:25:10;;;;;;;2.42;0.98;;;10.80;99.90;;;;;;5096344;28;20072;-73
2023/01/07 00:27:35;;;;;;;1.45;0.80;;;10.80;99.90;;;;;;5096276;28;20031;-73
2023/01/07 00:30:01;;;;;;;1.10;0.88;;;10.80;99.90;;;;;;5114638;28;20400;-73
2023/01/07 00:32:52;;;;;;;2.28;1.05;;;10.80;99.90;;;;;;5114051;28;20034;-74
2023/01/07 00:35:22;;;;;;;1.58;1.00;;;10.80;99.90;;;;;;5113793;28;20027;-74
2023/01/07 00:37:49;;;;;;;2.55;1.17;;;10.80;99.90;;;;;;5096072;28;20028;-73
2023/01/07 00:40:16;;;;;;;2.75;0.80;;;10.90;99.90;;;;;;5113717;28;20028;-73
2023/01/07 00:42:53;;;;;;;1.67;0.90;;;10.90;99.90;;;;;;5096175;28;20028;-73
2023/01/07 00:45:23;;;;;;;4.75;0.90;;;10.80;99.90;;;;;;5095543;28;20028;-73
2023/01/07 00:47:52;;;;;;;2.85;0.90;;;10.80;99.90;;;;;;5095515;28;20032;-73
2023/01/07 00:50:19;;;;;;;2.63;1.08;;;10.80;99.90;;;;;;5113233;28;20377;-73
2023/01/07 00:52:44;;;;;;;1.17;0.70;;;10.80;99.90;;;;;;5114037;28;20045;-73
2023/01/07 00:55:10;;;;;;;2.17;1.17;;;10.80;99.90;;;;;;5095830;28;20456;-73
2023/01/07 00:57:36;;;;;;;3.35;1.15;;;10.80;99.90;;;;;;5113557;28;20445;-73
2023/01/07 01:00:01;;;;;;;1.63;1.00;;;10.80;99.90;;;;;;5095498;28;20380;-72
2023/01/07 01:02:27;;;;;;;1.92;0.93;;;10.80;99.90;;;;;;5095112;28;20468;-73
2023/01/07 01:04:52;;;;;;;2.30;1.17;;;10.80;99.90;;;;;;5113741;28;20036;-73
2023/01/07 01:07:18;;;;;;;1.13;0.82;;;10.80;99.90;;;;;;5094946;28;20028;-73
2023/01/07 01:09:44;;;;;;;1.67;1.00;;;10.80;99.90;;;;;;5095490;28;20073;-73
2023/01/07 01:12:09;;;;;;;1.13;0.80;;;10.80;99.90;;;;;;5095431;28;20020;-73
2023/01/07 01:14:35;;;;;;;0.90;0.80;;;10.80;99.90;;;;;;5094992;28;20393;-73
2023/01/07 01:17:00;;;;;;;2.05;0.98;;;10.80;99.90;;;;;;5095256;28;20051;-73
2023/01/07 01:19:26;;;;;;;1.40;0.80;;;10.80;99.90;;;;;;5094997;28;20083;-73
2023/01/07 01:21:51;;;;;;;1.35;0.80;;;10.80;99.90;;;;;;5095489;28;20453;-73
2023/01/07 01:24:17;;;;;;;1.08;0.80;;;10.70;99.90;;;;;;5094655;28;20028;-73
2023/01/07 01:26:42;;;;;;;1.40;1.00;;;10.70;99.90;;;;;;5095253;28;20039;-73
2023/01/07 01:29:09;;;;;;;2.20;0.80;;;10.80;99.90;;;;;;5113449;28;20471;-73
2023/01/07 01:31:34;;;;;;;0.95;0.50;;;10.70;99.90;;;;;;5094628;28;20027;-73
2023/01/07 01:34:00;;;;;;;0.70;0.70;;;10.70;99.90;;;;;;5095176;28;20035;-74
2023/01/07 01:36:26;;;;;;;1.48;0.95;;;10.70;99.90;;;;;;5094609;28;20024;-74
2023/01/07 01:38:51;;;;;;;1.95;0.82;;;10.70;99.90;;;;;;5095077;28;20028;-73
2023/01/07 01:41:17;;;;;;;2.35;0.60;;;10.70;99.90;;;;;;5094669;28;20055;-74
2023/01/07 01:43:44;;;;;;;1.52;0.70;;;10.70;99.90;;;;;;5095210;28;20035;-73
2023/01/07 01:46:33;;;;;;;2.15;0.80;;;10.70;99.90;;;;;;5113122;28;20031;-73
2023/01/07 01:49:16;;;;;;;1.65;0.80;;;10.80;99.90;;;;;;5113306;28;20027;-72
2023/01/07 01:51:48;;;;;;;1.95;0.70;;;10.70;99.90;;;;;;5095058;28;20024;-73
2023/01/07 01:54:15;;;;;;;2.58;0.90;;;10.70;99.90;;;;;;5113401;28;20119;-73
2023/01/07 01:56:44;;;;;;;1.33;0.73;;;10.70;99.90;;;;;;5112414;28;20042;-74
2023/01/07 01:59:13;;;;;;;1.23;0.90;;;10.70;99.90;;;;;;5112790;28;20028;-73
2023/01/07 02:01:39;;;;;;;1.33;0.95;;;10.70;99.90;;;;;;5094282;28;20465;-73
2023/01/07 02:04:10;;;;;;;1.05;0.75;;;10.70;99.90;;;;;;5094706;28;20028;-73
2023/01/07 02:06:41;;;;;;;1.60;0.75;;;10.70;99.90;;;;;;5094274;28;20504;-73
2023/01/07 02:09:09;;;;;;;0.80;0.70;;;10.70;99.90;;;;;;5113106;28;20032;-73
2023/01/07 02:12:08;;;;;;;1.85;0.95;;;10.70;99.90;;;;;;5114890;28;20031;-73
2023/01/07 02:14:54;;;;;;;1.30;0.80;;;10.70;99.90;;;;;;5098387;28;20480;-73
2023/01/07 02:17:37;;;;;;;1.42;0.80;;;10.70;99.90;;;;;;5116603;28;20400;-74
2023/01/07 02:20:17;;;;;;;0.90;0.70;;;10.70;99.90;;;;;;5117151;28;20031;-73
2023/01/07 02:23:33;;;;;;;1.20;0.80;;;10.70;99.90;;;;;;5117170;28;20072;-73
2023/01/07 02:26:17;;;;;;;1.27;0.75;;;10.70;99.90;;;;;;5056284;28;20039;-73
2023/01/07 02:29:02;;;;;;;1.27;0.90;;;10.70;99.90;;;;;;5116505;28;20035;-73
2023/01/07 02:31:59;;;;;;;2.17;0.77;;;10.70;99.90;;;;;;5116005;28;20469;-73
2023/01/07 02:34:40;;;;;;;0.98;0.80;;;10.70;99.90;;;;;;5098070;28;20476;-73
2023/01/07 02:37:18;;;;;;;1.33;0.80;;;10.70;99.90;;;;;;5098648;28;20038;-73
2023/01/07 02:40:18;;;;;;;1.40;1.00;;;10.70;99.90;;;;;;5098754;28;20027;-73
2023/01/07 02:43:11;;;;;;;3.78;0.82;;;10.70;99.90;;;;;;5098552;28;20119;-73
2023/01/07 02:46:14;;;;;;;2.15;1.00;;;10.70;99.90;;;;;;5115749;28;20407;-73
2023/01/07 02:48:42;;;;;;;1.05;0.85;;;10.70;99.90;;;;;;5097791;28;20039;-72
2023/01/07 02:51:08;;;;;;;3.08;0.80;;;10.70;99.90;;;;;;5116421;28;20023;-73
2023/01/07 02:53:34;;;;;;;1.02;0.70;;;10.60;99.90;;;;;;5097617;28;20078;-73
2023/01/07 02:56:34;;;;;;;1.52;1.25;;;10.70;99.90;;;;;;5116494;28;20038;-73
2023/01/07 02:59:06;;;;;;;1.20;1.02;;;10.70;99.90;;;;;;5116327;28;20489;-73
2023/01/07 03:01:48;;;;;;;1.70;0.80;;;10.70;99.90;;;;;;5097501;28;20377;-73
2023/01/07 03:04:37;;;;;;;1.42;0.70;;;10.70;99.90;;;;;;5116192;28;20031;-73
2023/01/07 03:07:08;;;;;;;1.88;0.70;;;10.60;99.90;;;;;;5097670;28;20035;-73
2023/01/07 03:10:01;;;;;;;1.40;0.90;;;10.60;99.90;;;;;;5115373;28;20026;-74
2023/01/07 03:12:40;;;;;;;1.00;0.82;;;10.60;99.90;;;;;;5115368;28;20365;-73
2023/01/07 03:15:25;;;;;;;0.93;0.80;;;10.60;99.90;;;;;;5097931;28;20122;-73
2023/01/07 03:17:58;;;;;;;1.42;0.93;;;10.60;99.90;;;;;;5116089;28;20075;-73
2023/01/07 03:20:24;;;;;;;1.35;0.85;;;10.60;99.90;;;;;;5097150;28;20024;-74
2023/01/07 03:22:52;;;;;;;1.33;0.90;;;10.60;99.90;;;;;;5097499;28;20031;-73
2023/01/07 03:25:22;;;;;;;1.35;0.80;;;10.60;99.90;;;;;;5097430;28;20385;-73
2023/01/07 03:27:50;;;;;;;1.90;0.98;;;10.60;99.90;;;;;;5097279;28;20074;-73
2023/01/07 03:30:18;;;;;;;1.92;0.93;;;10.60;99.90;;;;;;5115660;28;20059;-73
2023/01/07 03:32:59;;;;;;;1.02;0.90;;;10.70;99.90;;;;;;5115421;28;20031;-73
2023/01/07 03:35:26;;;;;;;1.65;0.80;;;10.60;99.90;;;;;;5096865;28;20476;-73
2023/01/07 03:37:53;;;;;;;0.80;0.80;;;10.60;99.90;;;;;;5097276;28;20536;-72
2023/01/07 03:40:19;;;;;;;1.27;0.80;;;10.60;99.90;;;;;;5097146;28;20118;-73
2023/01/07 03:42:47;;;;;;;1.90;0.90;;;10.60;99.90;;;;;;5114937;28;20020;-73
2023/01/07 03:45:17;;;;;;;1.60;1.10;;;10.60;99.90;;;;;;5097175;28;20039;-73
2023/01/07 03:47:46;;;;;;;1.27;0.90;;;10.60;99.90;;;;;;5096522;28;20172;-73
2023/01/07 03:50:12;;;;;;;3.33;0.85;;;10.60;99.90;;;;;;5115039;28;20461;-73
2023/01/07 03:52:37;;;;;;;1.05;0.80;;;10.60;99.90;;;;;;5096499;28;20039;-73
2023/01/07 03:55:04;;;;;;;1.33;0.73;;;10.60;99.90;;;;;;5097128;28;20028;-73
2023/01/07 03:57:31;;;;;;;2.25;0.70;;;10.50;99.90;;;;;;5114209;28;20372;-73
2023/01/07 03:59:57;;;;;;;2.05;0.88;;;10.50;99.90;;;;;;5096789;28;20032;-73
2023/01/07 04:02:22;;;;;;;2.00;0.80;;;10.50;99.90;;;;;;5096847;28;20027;-73
2023/01/07 04:04:48;;;;;;;1.40;1.00;;;10.60;99.90;;;;;;5096399;28;20118;-73
2023/01/07 04:07:14;;;;;;;2.53;1.00;;;10.60;99.90;;;;;;5096652;28;20407;-73
2023/01/07 04:09:39;;;;;;;2.47;1.10;;;10.60;99.90;;;;;;5114728;28;20054;-73
2023/01/07 04:12:05;;;;;;;1.02;0.90;;;10.60;99.90;;;;;;5096711;28;20020;-73
2023/01/07 04:14:31;;;;;;;1.73;1.00;;;10.60;99.90;;;;;;5114594;28;20019;-73
2023/01/07 04:16:56;;;;;;;2.90;1.15;;;10.50;99.90;;;;;;5093009;28;20496;-73
2023/01/07 04:19:22;;;;;;;2.90;1.00;;;10.50;99.90;;;;;;5094606;28;20073;-73
2023/01/07 04:21:48;;;;;;;3.42;1.20;;;10.50;99.90;;;;;;5092583;28;20059;-73
2023/01/07 04:24:13;;;;;;;1.50;0.90;;;10.50;99.90;;;;;;5092847;28;20055;-73
2023/01/07 04:26:39;;;;;;;2.50;0.90;;;10.50;99.90;;;;;;5092373;28;20035;-73
2023/01/07 04:29:05;;;;;;;0.65;0.65;;;10.50;99.90;;;;;;5092873;28;20028;-73
2023/01/07 04:31:30;;;;;;;0.88;0.73;;;10.50;99.90;;;;;;5093934;28;20138;-73
2023/01/07 04:33:56;;;;;;;2.65;0.82;;;10.60;99.90;;;;;;5093308;28;20448;-73
2023/01/07 04:36:22;;;;;;;1.85;1.00;;;10.60;99.90;;;;;;5092450;28;20165;-73
2023/01/07 04:38:47;;;;;;;1.17;0.90;;;10.50;99.90;;;;;;5092296;28;20039;-73
2023/01/07 04:41:13;;;;;;;1.10;0.80;;;10.50;99.90;;;;;;5092618;28;20028;-73
2023/01/07 04:43:39;;;;;;;1.30;0.90;;;10.50;99.90;;;;;;5093646;28;20024;-73
2023/01/07 04:46:04;;;;;;;1.65;0.90;;;10.50;99.90;;;;;;5092524;28;20123;-73
2023/01/07 04:48:30;;;;;;;1.48;0.90;;;10.50;99.90;;;;;;5093043;28;20397;-73
2023/01/07 04:50:56;;;;;;;3.33;1.20;;;10.50;99.90;;;;;;5092388;28;20462;-73
2023/01/07 04:53:21;;;;;;;2.60;0.80;;;10.50;99.90;;;;;;5093748;28;20020;-73
2023/01/07 04:55:47;;;;;;;0.88;0.70;;;10.60;99.90;;;;;;5091639;28;20492;-73
2023/01/07 04:58:13;;;;;;;1.00;0.80;;;10.60;99.90;;;;;;5092367;28;20075;-73
2023/01/07 05:00:38;;;;;;;0.88;0.80;;;10.60;99.90;;;;;;5091598;28;20039;-73
2023/01/07 05:03:04;;;;;;;0.88;0.60;;;10.60;99.90;;;;;;5092234;28;20031;-73
2023/01/07 05:05:30;;;;;;;2.53;0.70;;;10.50;99.90;;;;;;5091652;28;20028;-72
2023/01/07 05:07:55;;;;;;;3.33;0.80;;;10.50;99.90;;;;;;5092280;28;20119;-73
2023/01/07 05:10:21;;;;;;;0.95;0.70;;;10.60;99.90;;;;;;5093543;28;20032;-73
2023/01/07 05:12:46;;;;;;;0.80;0.60;;;10.50;99.90;;;;;;5092887;28;20059;-73
2023/01/07 05:15:12;;;;;;;1.27;0.60;;;10.60;99.90;;;;;;5093429;28;20043;-73
2023/01/07 05:17:38;;;;;;;1.10;0.73;;;10.50;99.90;;;;;;5091104;28;20148;-73
2023/01/07 05:20:05;;;;;;;0.90;0.65;;;10.60;99.90;;;;;;5093305;28;20036;-73
2023/01/07 05:22:30;;;;;;;1.00;0.70;;;10.60;99.90;;;;;;5092750;28;20031;-74
2023/01/07 05:24:56;;;;;;;1.35;0.88;;;10.50;99.90;;;;;;5093145;28;20023;-73
2023/01/07 05:27:22;;;;;;;1.60;0.60;;;10.60;99.90;;;;;;5091809;28;20122;-73
2023/01/07 05:29:47;;;;;;;0.73;0.50;;;10.60;99.90;;;;;;5092624;28;20035;-73
2023/01/07 05:32:13;;;;;;;0.75;0.50;;;10.60;99.90;;;;;;5091576;28;20366;-73
2023/01/07 05:34:38;;;;;;;0.85;0.50;;;10.60;99.90;;;;;;5091217;28;20024;-73
2023/01/07 05:37:04;;;;;;;1.17;0.50;;;10.60;99.90;;;;;;5091944;28;20416;-73
2023/01/07 05:39:29;;;;;;;0.50;0.40;;;10.60;99.90;;;;;;5092795;28;20028;-75
2023/01/07 05:41:55;;;;;;;0.68;0.45;;;10.60;99.90;;;;;;5091631;28;20020;-73
2023/01/07 05:44:20;;;;;;;0.63;0.40;;;10.60;99.90;;;;;;5092545;28;20089;-73
2023/01/07 05:46:46;;;;;;;0.55;0.32;;;10.60;99.90;;;;;;5090345;28;20433;-73
2023/01/07 05:49:12;;;;;;;0.47;0.47;;;10.60;99.90;;;;;;5091600;28;20122;-73
2023/01/07 05:51:37;;;;;;;1.30;0.45;;;10.60;99.90;;;;;;5090685;28;20032;-73
2023/01/07 05:54:03;;;;;;;0.50;0.32;;;10.60;99.90;;;;;;5092963;28;20052;-73
2023/01/07 05:56:28;;;;;;;0.47;0.40;;;10.60;99.90;;;;;;5091556;28;20434;-73
2023/01/07 05:58:54;;;;;;;0.95;0.40;;;10.60;99.90;;;;;;5090942;28;20032;-73
2023/01/07 06:01:20;;;;;;;1.52;0.55;;;10.60;99.90;;;;;;5092722;28;20036;-73
2023/01/07 06:03:45;;;;;;;0.52;0.30;;;10.60;99.90;;;;;;5090886;28;20134;-73
2023/01/07 06:06:11;;;;;;;0.63;0.40;;;10.60;99.90;;;;;;5091377;28;20077;-72
2023/01/07 06:08:39;;;;;;;0.60;0.40;;;10.60;99.90;;;;;;5090995;28;20047;-73
2023/01/07 06:11:06;;;;;;;0.47;0.30;;;10.60;99.90;;;;;;5091373;28;20024;-73
2023/01/07 06:13:32;;;;;;;0.90;0.40;;;10.50;99.90;;;;;;5092139;28;20461;-74
2023/01/07 06:16:06;;;;;;;0.43;0.40;;;10.60;99.90;;;;;;5092681;28;20034;-73
2023/01/07 06:18:35;;;;;;;1.00;0.40;;;10.60;99.90;;;;;;5090577;28;20450;-75
2023/01/07 06:21:02;;;;;;;0.55;0.40;;;10.60;99.90;;;;;;5092819;28;20028;-73
2023/01/07 06:23:27;;;;;;;0.82;0.40;;;10.60;99.90;;;;;;5091355;28;20031;-73
2023/01/07 06:25:53;;;;;;;0.40;0.40;;;10.50;99.90;;;;;;5090616;28;20028;-73
2023/01/07 06:28:21;;;;;;;1.27;0.45;;;10.50;99.90;;;;;;5090994;28;20028;-73
2023/01/07 06:30:47;;;;;;;0.30;0.30;;;10.50;99.90;;;;;;5091984;28;20082;-73
2023/01/07 06:33:17;;;;;;;0.50;0.30;;;10.50;99.90;;;;;;5090885;28;20032;-73
2023/01/07 06:35:44;;;;;;;0.52;0.40;;;10.50;99.90;;;;;;5091962;28;20028;-74
2023/01/07 06:38:13;;;;;;;0.60;0.30;;;10.50;99.90;;;;;;5091236;28;20024;-73
2023/01/07 06:40:43;;;;;;;0.85;0.43;;;10.50;99.90;;;;;;5090570;28;20028;-73
2023/01/07 06:43:09;;;;;;;0.70;0.32;;;10.50;99.90;;;;;;5091241;28;20469;-73
2023/01/07 06:45:35;;;;;;;0.30;0.30;;;10.50;99.90;;;;;;5090413;28;20028;-74
2023/01/07 06:48:01;;;;;;;0.30;0.30;;;10.60;99.90;;;;;;5090995;28;20170;-73
2023/01/07 06:50:26;;;;;;;0.57;0.40;;;10.50;99.90;;;;;;5092446;28;20036;-73
2023/01/07 06:52:52;;;;;;;0.32;0.30;;;10.50;99.90;;;;;;5091789;28;20024;-73
2023/01/07 06:55:17;;;;;;;0.28;0.28;;;10.60;99.90;;;;;;5090984;28;20024;-73
2023/01/07 06:57:51;;;;;;;0.90;0.30;;;10.60;99.90;;;;;;5093821;28;20028;-73
2023/01/07 07:00:37;;;;;;;0.35;0.30;;;10.60;99.90;;;;;;5094695;28;20036;-73
2023/01/07 07:03:02;;;;;;;0.65;0.30;;;10.60;99.90;;;;;;5094992;28;20389;-73
2023/01/07 07:05:28;;;;;;;0.57;0.32;;;10.50;99.90;;;;;;5095777;28;20035;-73
2023/01/07 07:07:53;;;;;;;0.88;0.40;;;10.60;99.90;;;;;;5095271;28;20119;-73
2023/01/07 07:10:19;;;;;;;0.68;0.40;;;10.60;99.90;;;;;;5095701;28;20024;-73
2023/01/07 07:12:45;;;;;;;0.30;0.30;;;10.60;99.90;;;;;;5093823;28;20024;-73
2023/01/07 07:15:11;;;;;;;0.30;0.30;;;10.60;99.90;;;;;;5095583;28;20099;-73
2023/01/07 07:17:39;;;;;;;0.73;0.43;;;10.50;99.90;;;;;;5105048;28;20043;-74
2023/01/07 07:20:05;;;;;;;0.50;0.40;;;10.50;99.90;;;;;;5098021;28;20023;-73
2023/01/07 07:22:31;;;;;;;0.28;0.28;;;10.50;99.90;;;;;;5097563;28;20028;-74
2023/01/07 07:24:57;;;;;;;0.52;0.30;;;10.50;99.90;;;;;;5115421;28;20449;-74
2023/01/07 07:27:22;;;;;;;0.30;0.30;;;10.50;99.90;;;;;;5097704;28;20048;-73
2023/01/07 07:29:48;;;;;;;0.65;0.35;;;10.50;99.90;;;;;;5115158;28;20441;-73
2023/01/07 07:32:13;;;;;;;0.30;0.30;;;10.50;99.90;;;;;;5115736;28;20023;-73
2023/01/07 07:34:39;;;;;;;0.30;0.30;;;10.50;99.90;;;;;;5114745;28;20500;-73
2023/01/07 07:37:04;;;;;;;0.50;0.30;;;10.50;99.90;;;;;;5115595;28;20102;-73
2023/01/07 07:39:30;;;;;;;0.40;0.40;;;10.60;99.90;;;;;;5097296;28;20020;-73
2023/01/07 07:42:01;;;;;;;0.77;0.35;;;10.60;99.90;;;;;;5115092;28;20336;-73
2023/01/07 07:44:26;;;;;;;0.30;0.30;;;10.60;99.90;;;;;;5097299;28;20027;-73
2023/01/07 07:46:52;;;;;;;0.20;0.20;;;10.60;99.90;;;;;;5114624;28;20064;-73
2023/01/07 07:49:17;;;;;;;0.38;0.35;;;10.60;99.90;;;;;;5097107;28;20031;-73
2023/01/07 07:51:43;;;;;;;0.70;0.50;;;10.50;99.90;;;;;;5115082;28;20102;-73
2023/01/07 07:54:08;;;;;;;0.63;0.40;;;10.50;99.90;;;;;;5115265;28;20027;-73
2023/01/07 07:56:34;;;;;;;1.10;0.43;;;10.50;99.90;;;;;;5097084;28;20027;-73
2023/01/07 07:59:00;;;;;;;0.43;0.43;;;10.50;99.90;;;;;;5096386;28;20460;-73
2023/01/07 08:01:25;;;;;;;1.67;0.47;;;10.50;99.90;;;;;;5096923;28;20138;-72
2023/01/07 08:03:51;;;;;;;1.80;0.93;;;10.50;99.90;;;;;;5114263;28;20032;-73
2023/01/07 08:06:16;;;;;;;1.08;0.55;;;10.50;99.90;;;;;;5115135;28;20034;-73
2023/01/07 08:08:42;;;;;;;0.93;0.40;;;10.50;99.90;;;;;;5095351;28;20484;-73
2023/01/07 08:11:08;;;;;;;0.43;0.40;;;10.50;99.90;;;;;;5096653;28;20026;-73
2023/01/07 08:13:33;;;;;;;0.30;0.30;;;10.60;99.90;;;;;;5096643;28;20023;-73
2023/01/07 08:15:59;;;;;;;1.10;0.75;;;10.60;99.90;;;;;;5096117;28;20031;-73
2023/01/07 08:18:24;;;;;;;0.80;0.55;;;10.60;99.90;;;;;;5114876;28;20123;-73
2023/01/07 08:20:50;;;;;;;0.88;0.50;;;10.60;99.90;;;;;;5114227;28;20027;-74
2023/01/07 08:23:16;;;;;;;0.30;0.30;;;10.60;99.90;;;;;;5096413;28;20482;-73
2023/01/07 08:25:42;;;;;;;1.23;0.45;;;10.60;99.90;;;;;;5095838;28;20041;-74
2023/01/07 08:28:09;;;;;;;0.47;0.40;;;10.70;99.90;;;;;;5096033;28;20039;-73
2023/01/07 08:30:35;;;;;;;0.63;0.40;;;10.70;99.90;;;;;;5096377;28;20059;-73
2023/01/07 08:33:04;;;;;;;0.38;0.30;;;10.70;99.90;;;;;;5113962;28;20081;-73
2023/01/07 08:35:30;;;;;;;0.50;0.30;;;10.70;99.90;;;;;;5114456;28;20034;-73
2023/01/07 08:38:03;;;;;;;0.50;0.30;;;10.70;99.90;;;;;;5113343;28;20094;-73
2023/01/07 08:40:29;;;;;;;0.70;0.30;;;10.70;99.90;;;;;;5114209;28;20024;-73
2023/01/07 08:42:58;;;;;;;0.35;0.30;;;10.70;99.90;;;;;;5095647;28;20027;-73
2023/01/07 08:45:23;;;;;;;0.40;0.30;;;10.70;99.90;;;;;;5095888;28;20472;-73
2023/01/07 08:47:49;;;;;;;0.30;0.30;;;10.70;99.90;;;;;;5095599;28;20032;-73
2023/01/07 08:50:15;;;;;;;0.47;0.30;;;10.80;99.90;;;;;;5114531;28;20027;-74
2023/01/07 08:52:40;;;;;;;1.15;0.20;;;10.80;99.90;;;;;;5113908;28;20067;-76
2023/01/07 08:55:06;;;;;;;0.22;0.22;;;10.80;99.90;;;;;;5114201;28;20035;-73
2023/01/07 08:57:32;;;;;;;0.30;0.20;;;10.80;99.90;;;;;;5114228;28;20413;-73
2023/01/07 08:59:58;;;;;;;0.30;0.30;;;10.80;99.90;;;;;;5095250;28;20126;-73
2023/01/07 09:02:23;;;;;;;0.55;0.40;;;10.80;99.90;;;;;;5095889;28;20028;-73
2023/01/07 09:04:49;;;;;;;0.25;0.20;;;10.80;99.90;;;;;;5095130;28;20031;-74
2023/01/07 09:07:15;;;;;;;0.35;0.30;;;10.80;99.90;;;;;;5095566;28;20487;-73
2023/01/07 09:09:41;;;;;;;0.60;0.30;;;10.80;99.90;;;;;;5113563;28;20038;-73
2023/01/07 09:12:07;;;;;;;0.45;0.40;;;10.80;99.90;;;;;;5113540;28;20425;-73
2023/01/07 09:14:33;;;;;;;0.73;0.40;;;10.80;99.90;;;;;;5095624;28;20389;-73
2023/01/07 09:16:59;;;;;;;0.77;0.30;;;10.80;99.90;;;;;;5094848;28;20048;-73
2023/01/07 09:19:24;;;;;;;2.13;0.40;;;10.80;99.90;;;;;;5113660;28;20031;-73
2023/01/07 09:21:50;;;;;;;1.63;0.30;;;10.80;99.90;;;;;;5113357;28;20039;-74
2023/01/07 09:24:16;;;;;;;0.30;0.30;;;10.80;99.90;;;;;;5113647;28;20026;-73
2023/01/07 09:26:42;;;;;;;0.38;0.20;;;10.80;99.90;;;;;;5095134;28;20546;-74
2023/01/07 09:29:08;;;;;;;0.32;0.30;;;10.80;99.90;;;;;;5113551;28;20023;-73
2023/01/07 09:31:34;;;;;;;0.50;0.30;;;10.90;99.90;;;;;;5095285;28;20513;-73
2023/01/07 09:34:00;;;;;;;0.50;0.30;;;10.90;99.90;;;;;;5112759;28;20023;-73
2023/01/07 09:36:26;;;;;;;0.52;0.32;;;10.90;99.90;;;;;;5113364;28;20031;-74
2023/01/07 09:38:52;;;;;;;0.75;0.60;;;10.90;99.90;;;;;;5094713;28;20034;-73
2023/01/07 09:41:48;;;;;;;0.73;0.30;;;10.90;99.90;;;;;;5094846;28;20024;-74
2023/01/07 09:44:35;;;;;;;1.15;0.38;;;10.90;99.90;;;;;;5094989;28;20027;-73
2023/01/07 09:47:03;;;;;;;0.68;0.40;;;10.90;99.90;;;;;;5094540;28;20031;-73
2023/01/07 09:49:31;;;;;;;0.52;0.40;;;11.00;99.90;;;;;;5094993;28;20041;-73
2023/01/07 09:52:11;;;;;;;0.45;0.30;;;11.00;99.90;;;;;;5094488;28;20548;-73
2023/01/07 09:54:38;;;;;;;0.82;0.30;;;11.00;99.90;;;;;;5113282;28;20074;-73
2023/01/07 09:57:04;;;;;;;1.55;0.50;;;11.00;99.90;;;;;;5112536;28;20384;-73
2023/01/07 09:59:30;;;;;;;2.03;0.70;;;11.00;99.90;;;;;;5094883;28;20054;-73
2023/01/07 10:02:22;;;;;;;4.82;0.85;;;11.00;99.90;;;;;;5094396;28;20019;-73
2023/01/07 10:05:01;;;;;;;1.10;0.60;;;11.10;99.90;;;;;;5094557;28;20027;-74
2023/01/07 10:07:49;;;;;;;1.00;0.63;;;11.20;99.90;;;;;;5095008;28;20530;-73
2023/01/07 10:10:52;;;;;;;1.17;0.50;;;11.20;99.90;;;;;;5094947;28;20023;-73
2023/01/07 10:13:44;;;;;;;0.68;0.32;;;11.30;99.90;;;;;;5099341;28;20156;-73
2023/01/07 10:16:42;;;;;;;1.25;0.40;;;11.40;99.90;;;;;;5094057;28;20126;-73
2023/01/07 10:19:23;;;;;;;0.60;0.30;;;11.40;99.90;;;;;;5074103;28;20473;-73
2023/01/07 10:22:01;;;;;;;3.33;0.60;;;11.40;99.90;;;;;;5073750;28;20028;-74
2023/01/07 10:24:30;;;;;;;0.88;0.30;;;11.50;99.90;;;;;;5074738;28;20119;-73
2023/01/07 10:27:01;;;;;;;0.98;0.40;;;11.50;99.90;;;;;;5073711;28;20024;-74
2023/01/07 10:29:33;;;;;;;1.13;0.43;;;11.50;99.90;;;;;;5074584;28;20455;-73
2023/01/07 10:32:12;;;;;;;0.85;0.40;;;11.60;99.90;;;;;;5074930;28;20065;-73
2023/01/07 10:34:46;;;;;;;0.50;0.20;;;11.60;99.90;;;;;;5096594;28;20085;-73
2023/01/07 10:37:32;;;;;;;0.80;0.40;;;11.70;99.90;;;;;;5078516;28;20060;-73
2023/01/07 10:40:34;;;;;;;0.40;0.38;;;11.80;99.90;;;;;;5077752;28;20016;-73
2023/01/07 10:43:06;;;;;;;;;;;11.80;99.90;;;;;;5096273;28;20026;-73
2023/01/07 10:46:14;;;;;;;1.48;0.40;;;11.80;99.90;;;;;;5077995;28;20000;-73
2023/01/07 10:48:48;;;;;;;0.93;0.43;;;11.80;99.90;;;;;;5078065;28;20032;-73
2023/01/07 10:51:34;;;;;;;0.98;0.50;;;11.90;99.90;;;;;;5077900;28;20469;-73
2023/01/07 10:54:26;;;;;;;0.57;0.50;;;11.90;99.90;;;;;;5095680;28;20077;-73
2023/01/07 10:56:59;;;;;;;1.48;0.77;;;11.90;99.90;;;;;;5077392;28;20457;-73
2023/01/07 10:59:25;;;;;;;1.52;0.70;;;12.00;99.90;;;;;;5078081;28;20047;-73
2023/01/07 11:01:56;;;;;;;1.65;0.50;;;12.00;99.90;;;;;;5077203;28;20381;-73
2023/01/07 11:04:22;;;;;;;0.50;0.50;;;12.00;99.90;;;;;;5095604;28;20046;-73
2023/01/07 11:06:57;;;;;;;0.90;0.60;;;12.10;99.90;;;;;;5077432;28;20036;-78
2023/01/07 11:09:28;;;;;;;0.85;0.43;;;12.10;99.90;;;;;;5077900;28;20384;-73
2023/01/07 11:11:56;;;;;;;0.82;0.40;;;12.10;99.90;;;;;;5077416;28;20043;-74
2023/01/07 11:14:26;;;;;;;0.60;0.43;;;12.10;99.90;;;;;;5095664;28;20024;-74
2023/01/07 11:16:58;;;;;;;1.52;0.50;;;12.20;99.90;;;;;;5098882;28;20052;-73
2023/01/07 11:19:44;;;;;;;1.17;0.60;;;12.20;99.90;;;;;;5097866;28;20030;-73
2023/01/07 11:22:25;;;;;;;0.47;0.30;;;12.20;99.90;;;;;;5097275;28;20035;-73
2023/01/07 11:24:52;;;;;;;1.05;0.63;;;12.20;99.90;;;;;;5115365;28;20027;-74
2023/01/07 11:27:19;;;;;;;0.70;0.60;;;12.30;99.90;;;;;;5116294;28;20059;-74
2023/01/07 11:29:59;;;;;;;0.57;0.40;;;12.30;99.90;;;;;;5097478;28;20028;-73
2023/01/07 11:32:28;;;;;;;1.05;0.50;;;12.40;99.90;;;;;;5097642;28;20380;-73
2023/01/07 11:35:03;;;;;;;0.57;0.50;;;12.50;99.90;;;;;;5115405;28;20035;-74
2023/01/07 11:37:40;;;;;;;0.65;0.50;;;12.50;99.90;;;;;;5097472;28;20381;-73
2023/01/07 11:40:12;;;;;;;0.60;0.60;;;12.50;99.90;;;;;;5096719;28;20023;-74
2023/01/07 11:42:54;;;;;;;0.50;0.40;;;12.60;99.90;;;;;;5096891;28;20484;-73
2023/01/07 11:45:20;;;;;;;0.90;0.50;;;12.60;99.90;;;;;;5096828;28;20066;-73
2023/01/07 11:48:09;;;;;;;0.63;0.50;;;12.70;99.90;;;;;;5115457;28;20067;-73
2023/01/07 11:50:36;;;;;;;0.55;0.40;;;12.70;99.90;;;;;;5114253;28;20066;-73
2023/01/07 11:53:14;;;;;;;0.40;0.40;;;12.80;99.90;;;;;;5114801;28;20027;-73
2023/01/07 11:55:58;;;;;;;1.02;0.50;;;12.80;99.90;;;;;;5115691;28;20028;-73
2023/01/07 11:58:28;;;;;;;0.40;0.40;;;12.80;99.90;;;;;;5096728;28;20027;-73
2023/01/07 12:01:11;;;;;;;0.85;0.40;;;12.80;99.90;;;;;;5096406;28;20056;-74
2023/01/07 12:04:04;;;;;;;0.88;0.45;;;12.80;99.90;;;;;;5114909;28;20480;-73
2023/01/07 12:06:36;;;;;;;0.60;0.50;;;12.70;99.90;;;;;;5084549;28;20047;-73
2023/01/07 12:09:07;;;;;;;1.42;0.60;;;12.70;99.90;;;;;;5095944;28;20080;-73
2023/01/07 12:11:40;;;;;;;0.50;0.50;;;12.80;99.90;;;;;;5096763;28;20030;-73
2023/01/07 12:14:10;;;;;;;0.70;0.57;;;12.80;99.90;;;;;;5114462;28;20473;-73
2023/01/07 12:16:36;;;;;;;1.58;0.60;;;12.70;99.90;;;;;;5096569;28;20023;-73
2023/01/07 12:19:08;;;;;;;0.90;0.55;;;12.80;99.90;;;;;;5096108;28;20430;-73
2023/01/07 12:21:33;;;;;;;0.90;0.63;;;12.90;99.90;;;;;;5096515;28;20122;-73
2023/01/07 12:24:35;;;;;;;0.80;0.47;;;13.20;99.90;;;;;;5114278;28;20107;-73
2023/01/07 12:27:27;;;;;;;1.02;0.60;;;13.40;99.90;;;;;;5114208;28;20111;-73
2023/01/07 12:30:23;;;;;;;0.98;0.70;;;13.70;99.90;;;;;;5114748;28;20106;-73
2023/01/07 12:33:07;;;;;;;1.10;0.85;;;14.10;99.90;;;;;;5096511;28;20111;-73
2023/01/07 12:35:41;;;;;;;1.20;0.60;;;14.40;99.90;;;;;;5096236;28;20027;-73
2023/01/07 12:38:16;;;;;;;0.95;0.70;;;14.30;99.90;;;;;;5095769;28;20028;-73
2023/01/07 12:40:59;;;;;;;1.20;0.70;;;14.20;99.90;;;;;;5114503;28;20081;-73
2023/01/07 12:43:53;;;;;;;1.52;0.93;;;14.20;99.90;;;;;;5114084;28;20039;-73
2023/01/07 12:46:20;;;;;;;1.15;1.00;;;13.90;99.90;;;;;;5082030;28;20127;-73
2023/01/07 12:48:58;;;;;;;1.75;0.82;;;13.80;99.90;;;;;;5095950;28;20459;-73
2023/01/07 12:51:35;;;;;;;2.30;0.70;;;13.80;99.90;;;;;;5096026;28;20232;-72
2023/01/07 12:54:15;;;;;;;1.52;1.00;;;13.90;99.90;;;;;;5095483;28;20059;-73
2023/01/07 12:56:55;;;;;;;1.73;1.42;;;14.00;99.90;;;;;;5114142;28;20024;-73
2023/01/07 12:59:25;;;;;;;0.80;0.80;;;14.00;99.90;;;;;;5095901;28;20169;-73
2023/01/07 13:02:09;;;;;;;2.25;1.08;;;13.90;99.90;;;;;;5095693;28;20457;-73
2023/01/07 13:04:52;;;;;;;1.13;0.90;;;14.00;99.90;;;;;;5114132;28;20054;-73
2023/01/07 13:07:30;;;;;;;1.83;0.90;;;14.10;99.90;;;;;;5113435;28;20031;-73